Time;durP1;ratioP1;P1;durP2;ratioP2;P2;SDS_P1;SDS_P2;PMS_P1;PMS_P2;Temp;Humidity;BMP_temperature;BMP_pressure;BME280_temperature;BME280_humidity;BME280_pressure;Samples;Min_cycle;Max_cycle;Signal;HPM_P1;HPM_P2
2022/01/18 00:01:29;;;;;;;;;74.00;57.33;;;;;;;;5077758;27;45294;-73
2022/01/18 00:03:55;;;;;;;;;68.00;55.33;;;;;;;;5076158;27;45559;-72
2022/01/18 00:06:21;;;;;;;;;72.33;57.67;;;;;;;;5075151;28;45546;-73
2022/01/18 00:08:46;;;;;;;;;72.00;55.00;;;;;;;;5074869;27;47056;-73
2022/01/18 00:11:12;;;;;;;;;71.00;57.67;;;;;;;;5074763;27;45431;-72
2022/01/18 00:13:41;;;;;;;;;66.33;52.33;;;;;;;;5075921;27;45295;-73
2022/01/18 00:16:12;;;;;;;;;73.67;56.00;;;;;;;;5074972;28;45302;-72
2022/01/18 00:18:39;;;;;;;;;64.00;51.25;;;;;;;;5074766;28;46743;-72
2022/01/18 00:23:34;;;;;;;;;71.67;55.00;;;;;;;;5073295;27;45433;-73
2022/01/18 00:26:00;;;;;;;;;66.00;52.75;;;;;;;;5074523;27;45774;-72
2022/01/18 00:28:27;;;;;;;;;68.25;51.00;;;;;;;;5076177;28;46584;-73
2022/01/18 00:36:03;;;;;;;;;58.25;49.00;;;;;;;;5074594;28;45465;-73
2022/01/18 00:38:32;;;;;;;;;65.25;52.75;;;;;;;;5073373;27;45441;-72
2022/01/18 00:40:58;;;;;;;;;65.75;50.00;;;;;;;;5074199;27;45503;-72
2022/01/18 00:43:23;;;;;;;;;65.25;50.75;;;;;;;;5076804;28;45302;-73
2022/01/18 00:45:49;;;;;;;;;63.50;52.00;;;;;;;;5074338;28;45373;-73
2022/01/18 00:48:14;;;;;;;;;59.50;46.75;;;;;;;;5074158;27;47030;-73
2022/01/18 00:50:39;;;;;;;;;62.25;49.75;;;;;;;;5074303;27;45637;-73
2022/01/18 00:53:12;;;;;;;;;65.75;53.50;;;;;;;;5074795;28;45665;-72
2022/01/18 00:55:48;;;;;;;;;67.75;54.00;;;;;;;;5074742;27;45494;-72
2022/01/18 00:58:13;;;;;;;;;68.50;52.25;;;;;;;;5074893;27;45487;-72
2022/01/18 01:00:39;;;;;;;;;69.50;54.00;;;;;;;;5072437;27;45213;-72
2022/01/18 01:03:04;;;;;;;;;63.50;50.50;;;;;;;;5072737;28;45464;-73
2022/01/18 01:05:29;;;;;;;;;70.33;52.67;;;;;;;;5074253;27;45474;-73
2022/01/18 01:07:54;;;;;;;;;60.25;48.75;;;;;;;;5056023;28;47520;-73
2022/01/18 01:10:19;;;;;;;;;56.75;47.00;;;;;;;;5075595;28;45448;-72
2022/01/18 01:12:45;;;;;;;;;59.75;48.00;;;;;;;;5074342;27;45402;-73
2022/01/18 01:15:13;;;;;;;;;55.00;45.75;;;;;;;;5074489;28;45365;-72
2022/01/18 01:17:51;;;;;;;;;58.75;45.75;;;;;;;;5073957;27;47062;-72
2022/01/18 01:37:01;;;;;;;;;42.25;37.50;;;;;;;;5073998;27;47261;-73
2022/01/18 01:44:52;;;;;;;;;38.25;32.00;;;;;;;;5073035;27;45339;-74
2022/01/18 01:47:20;;;;;;;;;38.00;35.00;;;;;;;;5074343;27;45498;-73
2022/01/18 01:49:48;;;;;;;;;35.75;33.75;;;;;;;;5078333;27;46115;-73
2022/01/18 01:52:13;;;;;;;;;40.00;35.00;;;;;;;;5082700;27;45479;-73
2022/01/18 01:54:39;;;;;;;;;37.75;34.25;;;;;;;;5080904;27;45456;-72
2022/01/18 01:57:05;;;;;;;;;37.50;36.25;;;;;;;;5080452;27;45573;-72
2022/01/18 01:59:31;;;;;;;;;38.00;32.50;;;;;;;;5080022;27;47652;-73
2022/01/18 02:01:56;;;;;;;;;35.25;29.50;;;;;;;;5080431;27;45379;-73
2022/01/18 02:04:21;;;;;;;;;37.00;29.00;;;;;;;;5082441;27;45377;-72
2022/01/18 02:06:47;;;;;;;;;37.25;35.00;;;;;;;;5079778;27;45591;-73
2022/01/18 02:09:12;;;;;;;;;39.25;32.50;;;;;;;;5079939;27;46537;-73
2022/01/18 02:11:37;;;;;;;;;32.00;29.75;;;;;;;;5080203;27;45553;-74
2022/01/18 02:14:05;;;;;;;;;39.75;32.00;;;;;;;;5080674;27;45327;-73
2022/01/18 02:22:03;;;;;;;;;35.00;28.25;;;;;;;;5081321;27;45249;-72
2022/01/18 02:24:28;;;;;;;;;31.00;27.00;;;;;;;;5080005;27;45468;-72
2022/01/18 02:26:53;;;;;;;;;33.75;29.75;;;;;;;;5079684;27;45459;-73
2022/01/18 02:29:19;;;;;;;;;27.25;23.25;;;;;;;;5079778;27;46061;-71
2022/01/18 02:31:45;;;;;;;;;23.00;17.25;;;;;;;;5079764;28;45483;-71
2022/01/18 02:34:12;;;;;;;;;25.75;22.75;;;;;;;;5081622;27;45340;-72
2022/01/18 02:36:38;;;;;;;;;33.00;26.50;;;;;;;;5079212;27;45348;-71
2022/01/18 02:39:05;;;;;;;;;27.00;23.00;;;;;;;;5079204;28;46285;-72
2022/01/18 02:44:23;;;;;;;;;31.33;23.00;;;;;;;;5697006;22;46583;31
2022/01/18 02:46:48;;;;;;;;;30.00;25.00;;;;;;;;5018569;28;46075;-72
2022/01/18 02:49:13;;;;;;;;;32.75;26.75;;;;;;;;5019874;28;46248;-71
2022/01/18 02:51:38;;;;;;;;;24.50;20.00;;;;;;;;5019467;28;45248;-71
2022/01/18 02:54:05;;;;;;;;;22.00;16.50;;;;;;;;5020241;28;45279;-73
2022/01/18 02:56:42;;;;;;;;;29.25;25.75;;;;;;;;5020321;28;45323;-72
2022/01/18 02:59:23;;;;;;;;;18.25;17.25;;;;;;;;5020207;28;47062;-72
2022/01/18 03:04:37;;;;;;;;;22.25;15.25;;;;;;;;5017345;28;45363;-72
2022/01/18 03:07:02;;;;;;;;;22.00;21.00;;;;;;;;5016852;28;45367;-72
2022/01/18 03:09:28;;;;;;;;;26.25;19.25;;;;;;;;5016349;28;47350;-71
2022/01/18 03:11:53;;;;;;;;;21.00;20.00;;;;;;;;5016724;28;45331;-71
2022/01/18 03:14:18;;;;;;;;;23.75;20.50;;;;;;;;5016753;28;45356;-72
2022/01/18 03:16:43;;;;;;;;;27.50;22.00;;;;;;;;5017201;28;45469;-72
2022/01/18 03:19:08;;;;;;;;;25.25;20.75;;;;;;;;5016037;28;46086;-71
2022/01/18 03:21:34;;;;;;;;;23.00;18.25;;;;;;;;5016213;28;45548;-72
2022/01/18 03:24:12;;;;;;;;;28.75;21.75;;;;;;;;5012394;28;45416;-72
2022/01/18 03:28:04;;;;;;;;;28.25;22.50;;;;;;;;5000867;28;45378;-72
2022/01/18 03:29:24;;;;;;;;;32.25;24.75;;;;;;;;5016240;28;45859;-72
2022/01/18 03:31:49;;;;;;;;;22.75;18.25;;;;;;;;5012196;28;45522;-72
2022/01/18 03:34:15;;;;;;;;;32.00;25.00;;;;;;;;5011904;28;45578;-72
2022/01/18 03:36:41;;;;;;;;;34.00;25.75;;;;;;;;5006632;28;45481;-72
2022/01/18 03:39:06;;;;;;;;;21.00;19.50;;;;;;;;5005928;28;45537;-72
2022/01/18 03:41:31;;;;;;;;;24.75;21.25;;;;;;;;5016251;28;45441;-72
2022/01/18 03:43:57;;;;;;;;;24.00;21.25;;;;;;;;5016990;28;45573;-72
2022/01/18 03:46:24;;;;;;;;;29.00;24.50;;;;;;;;5015559;28;45312;-71
2022/01/18 03:48:51;;;;;;;;;29.25;22.25;;;;;;;;5015813;28;46362;-71
2022/01/18 03:51:16;;;;;;;;;32.50;26.50;;;;;;;;5015785;28;45555;-72
2022/01/18 03:53:41;;;;;;;;;28.25;22.75;;;;;;;;5016228;28;45379;-72
2022/01/18 03:56:07;;;;;;;;;34.75;29.25;;;;;;;;5016014;28;45390;-71
2022/01/18 03:58:34;;;;;;;;;25.50;20.75;;;;;;;;5016171;28;46967;-71
2022/01/18 04:00:59;;;;;;;;;27.00;23.00;;;;;;;;5010707;28;45452;-71
2022/01/18 04:03:24;;;;;;;;;28.25;22.75;;;;;;;;5011428;28;45401;-72
2022/01/18 04:05:52;;;;;;;;;27.50;22.00;;;;;;;;5013389;28;45375;-72
2022/01/18 04:08:17;;;;;;;;;24.75;21.50;;;;;;;;5015118;28;47241;-72
2022/01/18 04:10:43;;;;;;;;;29.75;25.00;;;;;;;;5012037;28;45370;-71
2022/01/18 04:13:09;;;;;;;;;35.75;26.75;;;;;;;;5009846;28;45370;-72
2022/01/18 04:15:34;;;;;;;;;31.00;24.75;;;;;;;;5011395;28;45438;-72
2022/01/18 04:18:16;;;;;;;;;33.50;26.25;;;;;;;;5012106;28;46259;-72
2022/01/18 04:28:52;;;;;;;;;59.75;45.75;;;;;;;;4973683;28;45374;-72
2022/01/18 04:31:17;;;;;;;;;40.00;35.00;;;;;;;;4973572;28;45400;-72
2022/01/18 04:33:42;;;;;;;;;33.25;26.25;;;;;;;;4973551;28;45314;-72
2022/01/18 04:36:08;;;;;;;;;37.50;29.00;;;;;;;;4973491;28;45405;-72
2022/01/18 04:38:34;;;;;;;;;35.75;31.25;;;;;;;;4973609;28;46810;-72
2022/01/18 04:41:04;;;;;;;;;52.00;38.00;;;;;;;;4973567;28;45433;-71
2022/01/18 04:48:50;;;;;;;;;27.00;17.25;;;;;;;;4974073;28;45879;-72
2022/01/18 04:51:21;;;;;;;;;39.25;28.00;;;;;;;;4974210;28;45481;-72
2022/01/18 04:53:52;;;;;;;;;36.25;29.25;;;;;;;;4973476;28;45469;-72
2022/01/18 04:56:26;;;;;;;;;31.25;28.75;;;;;;;;4973898;28;45364;-74
2022/01/18 04:58:52;;;;;;;;;37.75;26.50;;;;;;;;4973538;28;46587;-72
2022/01/18 05:01:17;;;;;;;;;28.00;22.75;;;;;;;;5004710;28;45632;-72
2022/01/18 05:03:42;;;;;;;;;27.50;25.25;;;;;;;;5010604;28;45420;-72
2022/01/18 05:06:12;;;;;;;;;28.25;19.75;;;;;;;;5010443;28;45370;-72
2022/01/18 05:08:38;;;;;;;;;23.00;22.00;;;;;;;;5013214;28;47177;-73
2022/01/18 05:11:04;;;;;;;;;24.75;18.00;;;;;;;;5011467;28;45347;-73
2022/01/18 05:16:21;;;;;;;;;31.75;24.00;;;;;;;;5010198;28;45344;-71
2022/01/18 05:21:28;;;;;;;;;34.25;28.50;;;;;;;;5014068;28;45465;-71
2022/01/18 05:23:54;;;;;;;;;41.00;32.25;;;;;;;;5013918;28;45328;-71
2022/01/18 05:26:20;;;;;;;;;30.25;24.00;;;;;;;;5014008;28;45316;-71
2022/01/18 05:28:45;;;;;;;;;34.50;28.25;;;;;;;;5014825;28;46627;-70
2022/01/18 05:31:10;;;;;;;;;25.75;22.00;;;;;;;;5014015;28;45596;-71
2022/01/18 05:33:36;;;;;;;;;41.00;30.25;;;;;;;;5014189;28;45355;-71
2022/01/18 05:36:01;;;;;;;;;38.50;28.25;;;;;;;;5013775;28;45613;-71
2022/01/18 05:38:26;;;;;;;;;36.50;26.00;;;;;;;;5013907;28;46664;-72
2022/01/18 05:40:52;;;;;;;;;27.50;24.50;;;;;;;;5014174;28;45537;-71
2022/01/18 05:43:18;;;;;;;;;39.00;28.75;;;;;;;;5013275;28;45571;-72
2022/01/18 05:45:43;;;;;;;;;30.00;22.00;;;;;;;;5013326;28;45513;-72
2022/01/18 05:48:08;;;;;;;;;33.00;24.00;;;;;;;;5013159;28;45419;-73
2022/01/18 05:50:35;;;;;;;;;26.00;23.25;;;;;;;;5013235;28;45304;-71
2022/01/18 05:53:00;;;;;;;;;31.25;24.50;;;;;;;;5013760;28;45377;-71
2022/01/18 05:55:25;;;;;;;;;29.00;23.25;;;;;;;;5013143;28;45407;-71
2022/01/18 05:57:51;;;;;;;;;25.75;20.25;;;;;;;;5008516;28;46363;-72
2022/01/18 06:00:22;;;;;;;;;27.50;24.75;;;;;;;;5012609;28;45221;-71
2022/01/18 06:02:59;;;;;;;;;28.50;25.50;;;;;;;;5012930;28;45347;-72
2022/01/18 06:08:09;;;;;;;;;28.75;22.75;;;;;;;;5011178;28;45869;-71
2022/01/18 06:10:35;;;;;;;;;31.50;29.00;;;;;;;;5008645;28;45407;-72
2022/01/18 06:13:02;;;;;;;;;27.00;23.75;;;;;;;;5009086;28;45371;-72
2022/01/18 06:15:27;;;;;;;;;30.50;27.25;;;;;;;;5008834;28;45367;-72
2022/01/18 06:17:53;;;;;;;;;29.50;23.00;;;;;;;;5010079;28;46294;-70
2022/01/18 06:20:18;;;;;;;;;27.25;21.50;;;;;;;;5012437;28;45174;-72
2022/01/18 06:22:43;;;;;;;;;34.50;31.50;;;;;;;;5009518;28;45344;-72
2022/01/18 06:25:09;;;;;;;;;36.25;29.75;;;;;;;;5007866;28;45450;-72
2022/01/18 06:27:34;;;;;;;;;36.75;30.50;;;;;;;;5018575;28;45335;-72
2022/01/18 06:30:00;;;;;;;;;33.00;24.50;;;;;;;;5025498;28;45245;-72
2022/01/18 06:32:25;;;;;;;;;32.75;24.75;;;;;;;;5017534;28;45375;-72
2022/01/18 06:34:51;;;;;;;;;19.25;16.50;;;;;;;;5009627;28;45545;-72
2022/01/18 06:37:16;;;;;;;;;37.50;29.75;;;;;;;;5010757;28;46175;-69
2022/01/18 06:39:41;;;;;;;;;31.00;25.50;;;;;;;;5015432;28;45430;-70
2022/01/18 06:42:07;;;;;;;;;45.75;30.75;;;;;;;;5015302;28;45461;-70
2022/01/18 06:44:32;;;;;;;;;30.75;23.25;;;;;;;;5014617;28;45330;-70
2022/01/18 06:46:57;;;;;;;;;25.00;23.25;;;;;;;;5011495;28;47203;-70
2022/01/18 06:49:23;;;;;;;;;35.50;30.00;;;;;;;;5011578;28;45404;-69
2022/01/18 06:51:48;;;;;;;;;37.50;30.25;;;;;;;;5010978;28;45336;-70
2022/01/18 06:54:16;;;;;;;;;30.75;28.00;;;;;;;;5010478;28;45370;-69
2022/01/18 06:56:47;;;;;;;;;27.50;24.25;;;;;;;;5014074;28;47062;-70
2022/01/18 06:59:13;;;;;;;;;29.25;25.50;;;;;;;;5014045;28;45375;-69
2022/01/18 07:01:39;;;;;;;;;28.75;23.00;;;;;;;;5012542;28;45383;-70
2022/01/18 07:04:04;;;;;;;;;27.50;25.25;;;;;;;;5011274;28;45485;-71
2022/01/18 07:06:29;;;;;;;;;36.50;31.50;;;;;;;;5010287;28;46442;-70
2022/01/18 07:08:54;;;;;;;;;32.50;30.00;;;;;;;;5012321;28;45438;-71
2022/01/18 07:11:20;;;;;;;;;33.75;29.75;;;;;;;;5014146;28;45597;-70
2022/01/18 07:13:45;;;;;;;;;25.00;21.25;;;;;;;;5011088;28;45465;-71
2022/01/18 07:16:10;;;;;;;;;33.00;24.75;;;;;;;;5013536;28;46140;-71
2022/01/18 07:18:36;;;;;;;;;37.00;33.00;;;;;;;;5014385;28;45387;-70
2022/01/18 07:21:01;;;;;;;;;33.50;25.50;;;;;;;;5011207;28;45377;-71
2022/01/18 07:23:26;;;;;;;;;29.50;27.00;;;;;;;;5014002;28;45329;-70
2022/01/18 07:25:53;;;;;;;;;32.75;27.25;;;;;;;;5014503;28;47050;-71
2022/01/18 07:28:18;;;;;;;;;30.25;24.25;;;;;;;;5011949;28;45300;-71
2022/01/18 07:30:44;;;;;;;;;25.75;20.75;;;;;;;;5014113;28;46789;-71
2022/01/18 07:33:09;;;;;;;;;36.50;29.25;;;;;;;;5014438;28;45467;-70
2022/01/18 07:35:35;;;;;;;;;30.25;24.75;;;;;;;;5014539;28;46264;-70
2022/01/18 07:38:03;;;;;;;;;31.75;28.00;;;;;;;;5014046;28;45439;-71
2022/01/18 07:40:29;;;;;;;;;33.25;30.50;;;;;;;;5014470;28;45473;-71
2022/01/18 07:42:55;;;;;;;;;35.75;30.75;;;;;;;;5013942;28;45521;-72
2022/01/18 07:45:21;;;;;;;;;37.50;32.75;;;;;;;;5022463;28;46078;-71
2022/01/18 07:47:46;;;;;;;;;33.00;28.50;;;;;;;;5020974;28;45390;-71
2022/01/18 07:50:11;;;;;;;;;32.75;27.50;;;;;;;;5021399;28;45379;-71
2022/01/18 07:52:37;;;;;;;;;29.50;26.75;;;;;;;;5020765;28;45475;-70
2022/01/18 07:55:03;;;;;;;;;43.75;36.50;;;;;;;;5013347;28;46416;-71
2022/01/18 07:57:28;;;;;;;;;23.00;20.00;;;;;;;;5012632;28;45400;-70
2022/01/18 07:59:53;;;;;;;;;40.75;35.00;;;;;;;;5011797;28;45508;-73
2022/01/18 08:02:18;;;;;;;;;31.75;27.75;;;;;;;;5014755;28;45487;-72
2022/01/18 08:04:44;;;;;;;;;36.50;31.75;;;;;;;;5016003;28;46203;-70
2022/01/18 08:07:09;;;;;;;;;30.25;26.25;;;;;;;;5013628;28;45590;-71
2022/01/18 08:09:36;;;;;;;;;33.75;30.25;;;;;;;;5012833;28;45536;-69
2022/01/18 08:12:01;;;;;;;;;44.75;34.00;;;;;;;;5009615;28;45509;-69
2022/01/18 08:14:29;;;;;;;;;51.50;38.00;;;;;;;;5013014;28;46100;-69
2022/01/18 08:17:00;;;;;;;;;36.50;31.25;;;;;;;;5014718;28;45367;-69
2022/01/18 08:19:29;;;;;;;;;41.50;33.75;;;;;;;;5014118;28;45236;-71
2022/01/18 08:21:55;;;;;;;;;45.25;38.00;;;;;;;;5010719;28;45506;-70
2022/01/18 08:24:21;;;;;;;;;45.25;34.50;;;;;;;;5012595;28;46511;-70
2022/01/18 08:26:46;;;;;;;;;39.50;35.00;;;;;;;;5014044;28;45431;-69
2022/01/18 08:29:12;;;;;;;;;40.00;35.50;;;;;;;;5013116;28;45425;-70
2022/01/18 08:31:38;;;;;;;;;45.50;38.75;;;;;;;;5009525;28;45265;-69
2022/01/18 08:34:03;;;;;;;;;43.75;35.25;;;;;;;;5012670;28;46348;-69
2022/01/18 08:36:28;;;;;;;;;52.50;39.00;;;;;;;;5012301;28;45341;-69
2022/01/18 08:38:53;;;;;;;;;43.50;30.75;;;;;;;;5010003;28;45340;-70
2022/01/18 08:41:19;;;;;;;;;39.75;31.00;;;;;;;;5012084;28;45447;-69
2022/01/18 08:43:44;;;;;;;;;35.25;31.50;;;;;;;;5012309;28;46976;-69
2022/01/18 08:46:10;;;;;;;;;39.00;29.25;;;;;;;;5012814;28;45475;-70
2022/01/18 08:48:36;;;;;;;;;31.00;27.50;;;;;;;;5012893;28;45316;-70
2022/01/18 08:51:02;;;;;;;;;39.50;29.75;;;;;;;;5011325;28;45365;-70
2022/01/18 08:53:27;;;;;;;;;30.25;25.25;;;;;;;;5013224;28;47074;-71
2022/01/18 08:55:53;;;;;;;;;36.25;29.25;;;;;;;;5011788;28;45442;-70
2022/01/18 08:58:18;;;;;;;;;41.25;34.50;;;;;;;;5011686;28;45462;-70
2022/01/18 09:00:43;;;;;;;;;27.50;24.50;;;;;;;;5009068;28;45356;-70
2022/01/18 09:03:09;;;;;;;;;49.00;35.25;;;;;;;;5011455;28;45353;-69
2022/01/18 09:05:36;;;;;;;;;32.50;28.25;;;;;;;;5012323;28;45481;-70
2022/01/18 09:08:05;;;;;;;;;36.25;31.75;;;;;;;;5009764;28;45232;-71
2022/01/18 09:10:31;;;;;;;;;27.50;26.00;;;;;;;;5010283;28;45406;-69
2022/01/18 09:12:56;;;;;;;;;32.00;25.50;;;;;;;;5010857;28;45340;-69
2022/01/18 09:15:22;;;;;;;;;33.25;30.25;;;;;;;;5009439;28;45557;-70
2022/01/18 09:17:47;;;;;;;;;37.75;32.25;;;;;;;;5011676;28;45260;-70
2022/01/18 09:20:13;;;;;;;;;33.00;29.00;;;;;;;;5012961;28;45923;-68
2022/01/18 09:22:40;;;;;;;;;26.25;26.25;;;;;;;;5011131;28;46515;-70
2022/01/18 09:25:08;;;;;;;;;32.00;28.75;;;;;;;;5009940;28;45532;-70
2022/01/18 09:27:34;;;;;;;;;43.00;35.25;;;;;;;;5007024;28;45473;-70
2022/01/18 09:29:59;;;;;;;;;38.00;26.50;;;;;;;;5009370;28;46178;-70
2022/01/18 09:32:25;;;;;;;;;31.00;27.00;;;;;;;;5011379;28;46109;-70
2022/01/18 09:34:50;;;;;;;;;33.50;28.25;;;;;;;;5013124;28;45371;-70
2022/01/18 09:37:15;;;;;;;;;33.00;29.75;;;;;;;;5011876;28;45521;-70
2022/01/18 09:39:41;;;;;;;;;31.75;28.75;;;;;;;;5008008;28;45436;-69
2022/01/18 09:42:06;;;;;;;;;32.50;25.25;;;;;;;;5008072;28;47026;-69
2022/01/18 09:44:31;;;;;;;;;31.50;28.25;;;;;;;;5011724;28;45313;-69
2022/01/18 09:46:57;;;;;;;;;29.25;26.00;;;;;;;;5013103;28;45424;-69
2022/01/18 09:49:24;;;;;;;;;32.25;30.00;;;;;;;;5011857;28;45533;-69
2022/01/18 09:51:49;;;;;;;;;30.25;26.50;;;;;;;;5010624;28;46152;-69
2022/01/18 09:54:15;;;;;;;;;80.50;61.25;;;;;;;;5011716;28;45431;-69
2022/01/18 09:56:40;;;;;;;;;30.25;28.50;;;;;;;;5012449;28;45485;-69
2022/01/18 09:59:06;;;;;;;;;32.00;29.25;;;;;;;;5012192;28;45467;-69
2022/01/18 10:01:31;;;;;;;;;41.00;31.25;;;;;;;;5007529;28;46532;-70
2022/01/18 10:04:12;;;;;;;;;36.50;31.50;;;;;;;;5012008;28;45427;-69
2022/01/18 10:06:39;;;;;;;;;33.25;29.75;;;;;;;;5011366;28;46206;-70
2022/01/18 10:09:09;;;;;;;;;17.75;13.50;;;;;;;;5011203;28;45450;-69
2022/01/18 10:11:34;;;;;;;;;33.75;30.50;;;;;;;;5014191;28;46191;-69
2022/01/18 10:13:59;;;;;;;;;30.75;28.25;;;;;;;;5015118;28;45306;-68
2022/01/18 10:16:25;;;;;;;;;34.75;30.75;;;;;;;;5015173;28;45432;-69
2022/01/18 10:18:56;;;;;;;;;31.25;24.50;;;;;;;;5014795;28;45513;-70
2022/01/18 10:21:29;;;;;;;;;31.25;28.75;;;;;;;;5013379;28;47298;-70
2022/01/18 10:24:11;;;;;;;;;18.75;18.50;;;;;;;;5012905;28;45907;-69
2022/01/18 10:26:41;;;;;;;;;31.25;24.75;;;;;;;;5013487;28;45592;-70
2022/01/18 10:29:06;;;;;;;;;29.25;27.25;;;;;;;;5012726;28;45240;-70
2022/01/18 10:31:37;;;;;;;;;27.50;23.25;;;;;;;;5012479;28;46534;-69
2022/01/18 10:34:14;;;;;;;;;33.75;22.50;;;;;;;;5014713;28;45355;-68
2022/01/18 10:36:59;;;;;;;;;29.25;24.00;;;;;;;;5014914;28;45312;-69
2022/01/18 10:39:25;;;;;;;;;31.50;29.50;;;;;;;;5015254;28;45519;-69
2022/01/18 10:41:51;;;;;;;;;56.50;40.50;;;;;;;;5014946;28;45335;-68
2022/01/18 10:44:17;;;;;;;;;37.75;32.00;;;;;;;;5014625;28;45323;-70
2022/01/18 10:46:45;;;;;;;;;44.50;37.25;;;;;;;;5015000;28;45291;-69
2022/01/18 10:49:11;;;;;;;;;31.00;29.00;;;;;;;;5013860;28;45398;-70
2022/01/18 10:51:42;;;;;;;;;38.50;33.25;;;;;;;;5004121;28;45948;-72
2022/01/18 10:54:09;;;;;;;;;35.00;31.25;;;;;;;;5013777;28;45852;-71
2022/01/18 10:56:45;;;;;;;;;25.50;20.75;;;;;;;;5013813;28;45613;-71
2022/01/18 10:59:20;;;;;;;;;36.25;25.25;;;;;;;;5011756;28;45261;-70
2022/01/18 11:01:45;;;;;;;;;30.75;24.50;;;;;;;;5013972;28;45487;-71
2022/01/18 11:04:11;;;;;;;;;28.75;25.75;;;;;;;;5015142;28;45561;-70
2022/01/18 11:06:37;;;;;;;;;32.00;28.50;;;;;;;;5014759;28;45488;-70
2022/01/18 11:09:11;;;;;;;;;32.00;28.00;;;;;;;;5010031;28;45494;-69
2022/01/18 11:11:46;;;;;;;;;27.00;25.50;;;;;;;;5014054;28;45669;-71
2022/01/18 11:14:14;;;;;;;;;22.75;20.00;;;;;;;;5014044;28;45383;-70
2022/01/18 11:16:42;;;;;;;;;24.00;18.75;;;;;;;;5013469;28;45468;-69
2022/01/18 11:19:16;;;;;;;;;37.75;30.50;;;;;;;;5014638;28;45291;-70
2022/01/18 11:21:42;;;;;;;;;28.00;26.25;;;;;;;;5013999;28;45650;-70
2022/01/18 11:24:07;;;;;;;;;29.00;26.25;;;;;;;;5014392;28;45538;-71
2022/01/18 11:26:32;;;;;;;;;36.75;34.75;;;;;;;;5015419;28;45484;-71
2022/01/18 11:28:59;;;;;;;;;21.50;16.50;;;;;;;;5015643;28;45543;-71
2022/01/18 11:31:24;;;;;;;;;25.50;21.75;;;;;;;;5014761;28;46080;-71
2022/01/18 11:33:54;;;;;;;;;26.00;21.25;;;;;;;;5013815;28;45450;-71
2022/01/18 11:36:23;;;;;;;;;20.00;18.50;;;;;;;;5011310;28;45303;-70
2022/01/18 11:38:52;;;;;;;;;26.50;24.50;;;;;;;;5013005;28;45332;-70
2022/01/18 11:41:24;;;;;;;;;19.25;19.25;;;;;;;;5013258;28;46185;-70
2022/01/18 11:43:51;;;;;;;;;25.00;22.00;;;;;;;;5009254;28;45377;-70
2022/01/18 11:46:27;;;;;;;;;24.25;19.25;;;;;;;;5008921;28;45583;-70
2022/01/18 11:48:59;;;;;;;;;26.50;23.00;;;;;;;;5014366;28;45480;-71
2022/01/18 11:51:47;;;;;;;;;20.00;18.25;;;;;;;;5009631;28;46411;-70
2022/01/18 11:54:35;;;;;;;;;15.25;13.75;;;;;;;;5009282;28;45506;-71
2022/01/18 11:57:02;;;;;;;;;19.50;16.00;;;;;;;;5009478;28;45364;-70
2022/01/18 11:59:34;;;;;;;;;20.50;20.25;;;;;;;;4998577;28;45205;-71
2022/01/18 12:02:00;;;;;;;;;14.50;11.50;;;;;;;;5010668;28;46069;-71
2022/01/18 12:04:54;;;;;;;;;18.75;15.00;;;;;;;;5009249;28;46089;-71
2022/01/18 12:07:38;;;;;;;;;14.75;12.00;;;;;;;;5011620;28;45372;-71
2022/01/18 12:10:08;;;;;;;;;23.50;22.25;;;;;;;;5009986;28;45442;-70
2022/01/18 12:12:39;;;;;;;;;20.75;18.00;;;;;;;;5011697;28;45767;-71
2022/01/18 12:15:26;;;;;;;;;18.50;18.50;;;;;;;;5008614;28;45468;-70
2022/01/18 12:17:51;;;;;;;;;16.25;15.50;;;;;;;;5010240;28;45527;-70
2022/01/18 12:20:35;;;;;;;;;14.75;14.75;;;;;;;;5011863;28;45305;-71
2022/01/18 12:23:17;;;;;;;;;19.50;18.25;;;;;;;;5012222;28;46090;-71
2022/01/18 12:26:02;;;;;;;;;23.50;19.50;;;;;;;;5011829;28;45380;-71
2022/01/18 12:34:34;;;;;;;;;18.00;14.50;;;;;;;;5007496;28;45996;-71
2022/01/18 12:37:11;;;;;;;;;13.00;10.25;;;;;;;;5008288;28;45284;-70
2022/01/18 12:40:05;;;;;;;;;13.00;12.25;;;;;;;;5008740;28;45529;-70
2022/01/18 12:45:08;;;;;;;;;21.50;15.75;;;;;;;;5007767;28;45412;-71
2022/01/18 12:47:35;;;;;;;;;14.75;11.75;;;;;;;;5012700;28;45490;-70
2022/01/18 12:50:01;;;;;;;;;16.50;14.25;;;;;;;;5009702;28;45385;-71
2022/01/18 12:52:26;;;;;;;;;12.50;12.50;;;;;;;;5008104;28;45355;-71
2022/01/18 12:54:51;;;;;;;;;23.75;23.75;;;;;;;;5008217;28;47226;-71
2022/01/18 12:57:21;;;;;;;;;16.25;12.50;;;;;;;;5009704;28;45474;-71
2022/01/18 12:59:59;;;;;;;;;23.00;18.50;;;;;;;;5010946;28;45452;-71
2022/01/18 13:02:25;;;;;;;;;19.50;17.25;;;;;;;;5012149;28;45599;-71
2022/01/18 13:04:56;;;;;;;;;12.75;11.50;;;;;;;;5008622;28;45516;-71
2022/01/18 13:07:22;;;;;;;;;18.25;17.75;;;;;;;;5007246;28;45468;-71
2022/01/18 13:09:57;;;;;;;;;16.50;12.50;;;;;;;;5008140;28;45479;-71
2022/01/18 13:12:36;;;;;;;;;18.75;14.00;;;;;;;;5006536;28;45580;-70
2022/01/18 13:15:04;;;;;;;;;25.75;21.25;;;;;;;;5005967;28;46462;-70
2022/01/18 13:23:13;;;;;;;;;24.00;21.25;;;;;;;;5010959;28;45309;-71
2022/01/18 13:25:46;;;;;;;;;22.75;18.75;;;;;;;;5007759;28;45443;-71
2022/01/18 13:28:11;;;;;;;;;27.75;22.25;;;;;;;;5008546;28;45303;-71
2022/01/18 13:30:39;;;;;;;;;23.75;20.50;;;;;;;;5008082;28;45391;-69
2022/01/18 13:33:06;;;;;;;;;18.25;18.25;;;;;;;;5008554;28;45440;-71
2022/01/18 13:35:32;;;;;;;;;18.00;12.75;;;;;;;;5012539;28;46978;-71
2022/01/18 13:37:58;;;;;;;;;11.00;11.00;;;;;;;;5013356;28;45422;-71
2022/01/18 13:40:25;;;;;;;;;12.25;10.50;;;;;;;;5008542;28;45534;-71
2022/01/18 13:42:53;;;;;;;;;16.00;14.50;;;;;;;;5008276;28;45508;-71
2022/01/18 13:45:26;;;;;;;;;18.50;15.25;;;;;;;;5007847;28;45410;-70
2022/01/18 13:47:53;;;;;;;;;15.75;13.50;;;;;;;;5009780;28;45556;-70
2022/01/18 13:50:37;;;;;;;;;21.00;19.75;;;;;;;;5012161;28;45466;-71
2022/01/18 13:53:02;;;;;;;;;14.75;13.75;;;;;;;;5006494;28;45564;-70
2022/01/18 13:55:28;;;;;;;;;16.00;13.00;;;;;;;;5012820;28;46076;-71
2022/01/18 13:57:54;;;;;;;;;14.25;13.50;;;;;;;;5007923;28;45913;-71
2022/01/18 14:00:22;;;;;;;;;15.00;15.00;;;;;;;;5008563;28;45649;-71
2022/01/18 14:02:47;;;;;;;;;16.25;13.25;;;;;;;;5011064;28;45347;-71
2022/01/18 14:05:13;;;;;;;;;15.50;11.75;;;;;;;;5012768;28;46412;-71
2022/01/18 14:07:39;;;;;;;;;18.50;14.50;;;;;;;;5008213;28;45427;-71
2022/01/18 14:10:04;;;;;;;;;16.50;13.50;;;;;;;;5023001;28;45765;-72
2022/01/18 14:12:30;;;;;;;;;16.75;14.00;;;;;;;;5007456;28;45448;-71
2022/01/18 14:14:56;;;;;;;;;21.00;16.75;;;;;;;;5009351;28;46067;-74
2022/01/18 14:17:21;;;;;;;;;15.00;11.50;;;;;;;;5011235;28;45337;-72
2022/01/18 14:19:47;;;;;;;;;13.25;13.25;;;;;;;;5008311;28;45267;-70
2022/01/18 14:22:12;;;;;;;;;15.00;15.00;;;;;;;;5007184;28;45329;-70
2022/01/18 14:24:42;;;;;;;;;10.75;10.25;;;;;;;;5007210;28;45502;-69
2022/01/18 14:27:15;;;;;;;;;15.75;10.50;;;;;;;;5011998;28;45499;-70
2022/01/18 14:29:40;;;;;;;;;23.00;20.25;;;;;;;;5011962;28;45453;-70
2022/01/18 14:32:20;;;;;;;;;14.00;10.00;;;;;;;;5012265;28;45525;-71
2022/01/18 14:34:49;;;;;;;;;12.25;12.00;;;;;;;;5012359;28;45411;-70
2022/01/18 14:37:15;;;;;;;;;11.50;10.75;;;;;;;;5010856;28;45268;-69
2022/01/18 14:40:00;;;;;;;;;13.50;11.75;;;;;;;;5006995;28;45481;-70
2022/01/18 14:42:33;;;;;;;;;15.75;10.00;;;;;;;;5007352;28;45340;-69
2022/01/18 14:47:26;;;;;;;;;11.25;9.25;;;;;;;;5012312;28;45477;-70
2022/01/18 14:50:03;;;;;;;;;14.75;10.25;;;;;;;;5008721;28;45367;-70
2022/01/18 14:52:29;;;;;;;;;15.00;11.75;;;;;;;;5011749;28;45573;-70
2022/01/18 14:54:54;;;;;;;;;12.50;11.50;;;;;;;;5011032;28;46949;-71
2022/01/18 14:57:20;;;;;;;;;15.50;13.75;;;;;;;;5012086;28;45217;-71
2022/01/18 14:59:45;;;;;;;;;14.75;14.25;;;;;;;;5014087;28;45266;-70
2022/01/18 15:02:11;;;;;;;;;12.25;10.00;;;;;;;;5015080;28;45193;-69
2022/01/18 15:04:37;;;;;;;;;6.50;6.50;;;;;;;;5012644;28;46502;-69
2022/01/18 15:07:02;;;;;;;;;11.50;9.75;;;;;;;;5009740;28;45443;-70
2022/01/18 15:09:29;;;;;;;;;13.75;13.75;;;;;;;;5011127;28;45460;-70
2022/01/18 15:11:58;;;;;;;;;19.50;16.25;;;;;;;;5011959;28;45415;-70
2022/01/18 15:14:24;;;;;;;;;11.75;10.75;;;;;;;;5014017;28;47211;-70
2022/01/18 15:16:49;;;;;;;;;11.25;10.25;;;;;;;;5010351;28;45305;-70
2022/01/18 15:19:14;;;;;;;;;22.75;17.00;;;;;;;;5009939;28;45567;-69
2022/01/18 15:21:40;;;;;;;;;12.75;10.00;;;;;;;;5010060;28;45387;-70
2022/01/18 15:24:05;;;;;;;;;15.75;14.00;;;;;;;;5010183;28;46302;-69
2022/01/18 15:26:30;;;;;;;;;14.00;10.75;;;;;;;;5014763;28;45538;-71
2022/01/18 15:28:55;;;;;;;;;12.00;9.25;;;;;;;;5015159;28;45432;-70
2022/01/18 15:31:21;;;;;;;;;9.00;7.25;;;;;;;;5014241;28;45487;-70
2022/01/18 15:33:46;;;;;;;;;7.75;7.25;;;;;;;;5014133;28;46594;-69
2022/01/18 15:36:11;;;;;;;;;19.50;11.00;;;;;;;;5009034;28;45335;-71
2022/01/18 15:38:37;;;;;;;;;13.25;11.75;;;;;;;;5013353;28;45547;-70
2022/01/18 15:41:02;;;;;;;;;16.00;13.00;;;;;;;;5012062;28;45396;-70